Satsuma, Florida
Current Conditions -  °F | °C
As of 5:55 PM on Saturday 20 Dec 2014 (Local Time) from K28J Reporting Station
Broken Clouds Broken Clouds  
Wind Chill: 63°   Ceiling: 3800
Heat Index: 63°   Visibility: 10mi
Dew Point: 57°   Wind: 8mph
Humidity: 82%   Direction: 70°ENE
Pressure: 30.1"   Gusts: NA
Location:  29.56°N, 81.66°W
Report Text: K28J 202255Z AUTO 07007KT 10SM BKN038 BKN120 17/14 A3010 RMK AO2
Loading
Personal Weather Stations






























Interactive Weather Map New forecast layout! Learn more

10-Day Weather Forecast

Advertisements
Track Severe Weather on mobile